This is the latest recevied weather packets stored in our database for station/object IW8PDD-3. If no packets are shown the sender has not sent any weather packets the latest 10 day(s).
| Time | Temp. | Humidity | Pressure | Rain* | Wind** | Luminosity | Snow |
|---|---|---|---|---|---|---|---|
| 1777467478 | 27.22° C | 39% | 1016.6 hPa | - | - | - | - |
| 1777466274 | 26.11° C | 41% | 1016.7 hPa | - | - | - | - |
| 1777465071 | 26.11° C | 42% | 1016.6 hPa | - | - | - | - |
| 1777463867 | 25.56° C | 43% | 1016.7 hPa | - | - | - | - |
| 1777461460 | 23.89° C | 47% | 1016.7 hPa | - | - | - | - |
| 1777459053 | 22.78° C | 50% | 1016.9 hPa | - | - | - | - |
| 1777457850 | 22.22° C | 52% | 1017.1 hPa | - | - | - | - |
| 1777456646 | 22.22° C | 54% | 1017.2 hPa | - | - | - | - |
| 1777455443 | 21.67° C | 56% | 1017.2 hPa | - | - | - | - |
| 1777454240 | 21.11° C | 58% | 1017.4 hPa | - | - | - | - |
| 1777453036 | 20.56° C | 59% | 1017.3 hPa | - | - | - | - |
| 1777451833 | 21.11° C | 60% | 1017.2 hPa | - | - | - | - |
| 1777450629 | 20° C | 61% | 1017.2 hPa | - | - | - | - |
| 1777449426 | 20.56° C | 61% | 1016.9 hPa | - | - | - | - |
| 1777448222 | 20° C | 62% | 1016.9 hPa | - | - | - | - |
| 1777447019 | 20° C | 62% | 1016.7 hPa | - | - | - | - |
| 1777445815 | 19.44° C | 62% | 1016.6 hPa | - | - | - | - |
| 1777444612 | 18.89° C | 62% | 1016.5 hPa | - | - | - | - |
| 1777443408 | 18.33° C | 61% | 1016.4 hPa | - | - | - | - |
| 1777442205 | 17.78° C | 60% | 1016.3 hPa | - | - | - | - |
| 1777441001 | 17.78° C | 59% | 1016.3 hPa | - | - | - | - |
| 1777439798 | 17.22° C | 57% | 1016.3 hPa | - | - | - | - |
| 1777438595 | 17.22° C | 59% | 1016.2 hPa | - | - | - | - |
| 1777437391 | 16.67° C | 59% | 1016.1 hPa | - | - | - | - |
| 1777436187 | 16.67° C | 58% | 1015.9 hPa | - | - | - | - |
* Rain since midnight (hover to see other rain measurements)
** Current wind speed in m/s (hover to see current wind gust speed)